createdAt,value
2023-02-06T00:01:49.544Z,31.60
2023-02-06T00:05:56.567Z,28.80
2023-02-06T00:09:47.323Z,30.60
2023-02-06T00:21:47.575Z,46.50
2023-02-06T00:25:47.392Z,40.50
2023-02-06T00:29:47.513Z,29.80
2023-02-06T00:33:47.815Z,29.60
2023-02-06T00:37:47.558Z,24.30
2023-02-06T00:41:47.399Z,25.70
2023-02-06T00:45:50.422Z,28.40
2023-02-06T00:53:49.575Z,31.70
2023-02-06T00:57:47.543Z,43.10
2023-02-06T01:01:47.796Z,65.00
2023-02-06T01:05:47.877Z,57.20
2023-02-06T01:09:47.650Z,54.90
2023-02-06T01:13:48.358Z,28.60
2023-02-06T01:21:47.592Z,21.50
2023-02-06T01:25:47.379Z,24.60
2023-02-06T01:29:47.633Z,21.80
2023-02-06T01:33:48.218Z,18.80
2023-02-06T01:37:47.633Z,23.00
2023-02-06T01:41:47.555Z,25.70
2023-02-06T01:45:47.880Z,25.40
2023-02-06T01:53:50.708Z,35.40
2023-02-06T01:57:47.601Z,48.00
2023-02-06T02:01:48.381Z,46.40
2023-02-06T02:09:47.867Z,40.70
2023-02-06T02:13:50.098Z,34.80
2023-02-06T02:18:02.044Z,32.10
2023-02-06T02:22:04.716Z,28.50
2023-02-06T02:26:07.425Z,25.80
2023-02-06T02:30:09.558Z,25.10
2023-02-06T02:34:07.624Z,33.10
2023-02-06T02:37:57.651Z,29.20
2023-02-06T02:41:52.213Z,29.80
2023-02-06T02:49:47.974Z,28.30
2023-02-06T02:53:47.849Z,33.20
2023-02-06T03:01:55.030Z,26.70
2023-02-06T03:05:55.786Z,24.70
2023-02-06T03:10:01.242Z,34.60
2023-02-06T03:13:53.008Z,24.10
2023-02-06T03:17:55.067Z,25.60
2023-02-06T03:21:49.589Z,25.40
2023-02-06T03:29:50.615Z,27.10
2023-02-06T03:33:54.192Z,17.20
2023-02-06T03:41:48.866Z,25.90
2023-02-06T03:49:50.356Z,24.70
2023-02-06T03:53:50.675Z,28.10
2023-02-06T03:57:51.539Z,22.60
2023-02-06T04:01:52.576Z,24.50
2023-02-06T04:05:48.292Z,22.10
2023-02-06T04:09:47.961Z,19.00
2023-02-06T04:13:48.134Z,19.80
2023-02-06T04:17:59.338Z,22.10
2023-02-06T04:21:48.186Z,21.40
2023-02-06T04:25:47.897Z,26.80
2023-02-06T04:29:48.201Z,19.50
2023-02-06T04:33:47.905Z,24.30
2023-02-06T04:41:48.080Z,19.70
2023-02-06T04:49:48.028Z,26.40
2023-02-06T04:57:48.074Z,21.80
2023-02-06T05:01:48.217Z,27.30
2023-02-06T05:05:48.437Z,23.90
2023-02-06T05:09:47.998Z,24.60
2023-02-06T05:13:48.354Z,26.50
2023-02-06T05:17:48.009Z,24.00
2023-02-06T05:21:48.294Z,30.20
2023-02-06T05:25:48.049Z,22.30
2023-02-06T05:29:48.200Z,24.60
2023-02-06T05:33:52.360Z,30.30
2023-02-06T05:37:48.272Z,20.20
2023-02-06T05:41:48.222Z,20.20
2023-02-06T05:45:48.204Z,22.50
2023-02-06T05:49:48.350Z,25.80
2023-02-06T05:53:48.353Z,25.70
2023-02-06T05:57:48.131Z,24.10
2023-02-06T06:01:48.330Z,19.50
2023-02-06T06:05:48.283Z,17.20
2023-02-06T06:09:48.334Z,24.20
2023-02-06T06:13:48.187Z,25.10
2023-02-06T06:17:48.421Z,20.30
2023-02-06T06:21:48.314Z,18.50
2023-02-06T06:25:48.375Z,21.40
2023-02-06T06:29:48.315Z,22.00
2023-02-06T06:33:48.467Z,17.70
2023-02-06T06:37:48.285Z,22.00
2023-02-06T06:41:48.376Z,20.10
2023-02-06T06:45:48.431Z,24.10
2023-02-06T06:49:48.535Z,20.30
2023-02-06T06:53:48.283Z,19.90
2023-02-06T06:57:48.595Z,26.20
2023-02-06T07:01:51.437Z,22.10
2023-02-06T07:05:48.688Z,24.90
2023-02-06T07:09:48.530Z,20.50
2023-02-06T07:13:48.457Z,21.80
2023-02-06T07:17:48.546Z,19.00
2023-02-06T07:21:48.565Z,24.10
2023-02-06T07:29:48.701Z,20.60
2023-02-06T07:33:48.569Z,19.30
2023-02-06T07:41:49.889Z,21.20
2023-02-06T07:45:48.538Z,16.60
2023-02-06T07:53:48.695Z,19.00
2023-02-06T07:57:48.482Z,18.80
2023-02-06T08:01:48.580Z,17.70
2023-02-06T08:05:48.585Z,23.90
2023-02-06T08:09:48.750Z,20.40
2023-02-06T08:13:48.678Z,27.30
2023-02-06T08:17:48.570Z,24.30
2023-02-06T08:21:48.883Z,20.00
2023-02-06T08:25:48.624Z,23.40
2023-02-06T08:29:49.336Z,19.60
2023-02-06T08:37:48.639Z,21.70
2023-02-06T08:41:49.050Z,21.50
2023-02-06T08:45:50.550Z,22.30
2023-02-06T08:49:49.037Z,24.30
2023-02-06T08:53:48.748Z,21.20
2023-02-06T08:57:48.546Z,55.50
2023-02-06T09:01:48.909Z,43.80
2023-02-06T09:05:49.002Z,26.10
2023-02-06T09:09:48.775Z,20.10
2023-02-06T09:13:49.761Z,20.80
2023-02-06T09:17:48.729Z,20.80
2023-02-06T09:21:48.655Z,22.60
2023-02-06T09:25:48.736Z,19.00
2023-02-06T09:29:49.587Z,25.40
2023-02-06T09:33:49.060Z,31.30
2023-02-06T09:37:48.678Z,23.90
2023-02-06T09:41:51.751Z,23.90
2023-02-06T09:45:55.628Z,24.40
2023-02-06T09:49:52.100Z,32.80
2023-02-06T09:53:56.016Z,23.10
2023-02-06T09:57:57.137Z,25.50
2023-02-06T10:01:57.143Z,29.70
2023-02-06T10:05:57.789Z,29.90
2023-02-06T10:09:53.364Z,24.30
2023-02-06T10:13:53.582Z,27.30
2023-02-06T10:17:54.324Z,24.40
2023-02-06T10:21:54.006Z,30.20
2023-02-06T10:26:02.482Z,27.50
2023-02-06T10:29:48.993Z,29.90
2023-02-06T10:33:57.563Z,28.30
2023-02-06T10:38:08.202Z,33.60
2023-02-06T10:41:55.942Z,27.90
2023-02-06T10:45:54.362Z,30.30
2023-02-06T10:49:55.100Z,31.20
2023-02-06T10:53:51.692Z,22.50
2023-02-06T10:57:59.101Z,28.60
2023-02-06T11:01:52.911Z,26.10
2023-02-06T11:05:49.558Z,26.60
2023-02-06T11:09:49.061Z,44.00
2023-02-06T11:13:51.680Z,38.60
2023-02-06T11:17:52.060Z,36.50
2023-02-06T11:21:52.681Z,24.70
2023-02-06T11:26:02.172Z,23.80
2023-02-06T11:29:52.046Z,22.70
2023-02-06T11:33:51.631Z,20.80
2023-02-06T11:37:52.748Z,20.70
2023-02-06T11:41:56.778Z,15.50
2023-02-06T11:45:58.611Z,24.00
2023-02-06T11:49:49.252Z,26.90
2023-02-06T11:53:58.782Z,30.00
2023-02-06T11:58:01.377Z,20.20
2023-02-06T12:01:49.781Z,22.10
2023-02-06T12:05:49.120Z,22.80
2023-02-06T12:09:50.712Z,22.60
2023-02-06T12:13:53.749Z,22.50
2023-02-06T12:17:54.580Z,25.20
2023-02-06T12:21:52.618Z,17.70
2023-02-06T12:25:53.494Z,19.30
2023-02-06T12:29:56.014Z,18.50
2023-02-06T12:33:54.021Z,17.00
2023-02-06T12:37:54.581Z,17.10
2023-02-06T12:42:09.044Z,19.60
2023-02-06T12:45:55.545Z,21.40
2023-02-06T12:49:55.938Z,12.30
2023-02-06T12:53:54.055Z,13.90
2023-02-06T12:57:49.799Z,14.80
2023-02-06T13:01:57.101Z,20.00
2023-02-06T13:05:53.268Z,18.90
2023-02-06T13:13:59.531Z,27.40
2023-02-06T13:17:50.341Z,14.40
2023-02-06T13:21:51.212Z,19.40
2023-02-06T13:25:49.638Z,19.80
2023-02-06T13:29:50.665Z,24.50
2023-02-06T13:37:51.029Z,19.90
2023-02-06T13:41:50.342Z,19.30
2023-02-06T13:45:54.713Z,17.70
2023-02-06T13:50:07.523Z,14.00
2023-02-06T13:54:09.384Z,19.10
2023-02-06T13:58:03.185Z,16.00
2023-02-06T14:01:50.479Z,16.00
2023-02-06T14:05:58.895Z,20.10
2023-02-06T14:10:04.804Z,16.10
2023-02-06T14:14:13.511Z,17.90
2023-02-06T14:18:08.039Z,14.50
2023-02-06T14:21:59.100Z,17.90
2023-02-06T14:26:03.878Z,19.00
2023-02-06T14:30:00.549Z,13.90
2023-02-06T14:33:59.883Z,17.40
2023-02-06T14:38:09.311Z,14.30
2023-02-06T14:41:49.764Z,15.70
2023-02-06T14:46:05.394Z,17.20
2023-02-06T14:49:51.052Z,16.00
2023-02-06T14:53:51.654Z,18.40
2023-02-06T14:57:50.369Z,20.20
2023-02-06T15:01:52.313Z,14.30
2023-02-06T15:05:59.775Z,17.20
2023-02-06T15:09:56.976Z,20.50
2023-02-06T15:13:52.139Z,13.90
2023-02-06T15:17:59.427Z,17.30
2023-02-06T15:21:51.687Z,18.20
2023-02-06T15:25:58.205Z,13.60
2023-02-06T15:29:50.301Z,79.20
2023-02-06T15:33:52.897Z,22.90
2023-02-06T15:37:50.784Z,15.50
2023-02-06T15:41:51.966Z,18.40
2023-02-06T15:45:52.396Z,11.10
2023-02-06T15:49:50.378Z,10.90
2023-02-06T15:53:52.130Z,15.00
2023-02-06T15:57:50.250Z,14.20
2023-02-06T16:01:51.976Z,16.40
2023-02-06T16:05:51.393Z,15.40
2023-02-06T16:09:53.513Z,13.70
2023-02-06T16:13:49.797Z,15.90
2023-02-06T16:17:50.278Z,20.90
2023-02-06T16:25:59.424Z,18.20
2023-02-06T16:29:52.435Z,17.10
2023-02-06T16:33:51.820Z,21.20
2023-02-06T16:37:53.309Z,22.80
2023-02-06T16:41:51.911Z,27.80
2023-02-06T16:45:50.036Z,17.70
2023-02-06T16:49:51.134Z,23.30
2023-02-06T16:53:51.016Z,21.70
2023-02-06T16:57:52.471Z,17.60
2023-02-06T17:01:49.965Z,20.90
2023-02-06T17:05:50.014Z,21.60
2023-02-06T17:09:53.014Z,20.10
2023-02-06T17:13:50.051Z,17.30
2023-02-06T17:17:50.067Z,15.30
2023-02-06T17:21:50.136Z,19.00
2023-02-06T17:25:51.063Z,18.90
2023-02-06T17:29:51.124Z,18.70
2023-02-06T17:33:49.920Z,17.00
2023-02-06T17:37:50.652Z,16.90
2023-02-06T17:41:53.616Z,106.20
2023-02-06T17:45:50.136Z,254.80
2023-02-06T17:49:50.364Z,119.80
2023-02-06T17:53:50.917Z,34.80
2023-02-06T17:57:50.701Z,16.70
2023-02-06T18:01:50.250Z,17.90
2023-02-06T18:05:54.949Z,19.60
2023-02-06T18:09:50.137Z,15.40
2023-02-06T18:13:50.348Z,14.30
2023-02-06T18:17:50.569Z,14.40
2023-02-06T18:21:50.454Z,18.10
2023-02-06T18:25:50.548Z,15.50
2023-02-06T18:29:54.020Z,13.50
2023-02-06T18:33:50.794Z,21.40
2023-02-06T18:37:50.611Z,19.20
2023-02-06T18:41:59.966Z,17.30
2023-02-06T18:45:50.425Z,24.80
2023-02-06T18:49:50.249Z,20.70
2023-02-06T18:53:50.615Z,19.60
2023-02-06T18:57:51.463Z,17.60
2023-02-06T19:01:51.001Z,22.80
2023-02-06T19:05:50.260Z,17.70
2023-02-06T19:09:55.235Z,17.40
2023-02-06T19:13:50.347Z,17.80
2023-02-06T19:17:50.387Z,17.10
2023-02-06T19:21:50.326Z,22.40
2023-02-06T19:25:50.477Z,19.20
2023-02-06T19:29:50.308Z,21.60
2023-02-06T19:33:51.854Z,20.30
2023-02-06T19:37:50.821Z,18.30
2023-02-06T19:41:50.427Z,21.90
2023-02-06T19:45:50.300Z,27.90
2023-02-06T19:49:51.651Z,25.50
2023-02-06T19:53:52.364Z,25.50
2023-02-06T19:57:50.552Z,20.40
2023-02-06T20:01:53.127Z,27.60
2023-02-06T20:05:50.732Z,23.40
2023-02-06T20:09:51.261Z,27.80
2023-02-06T20:13:51.143Z,23.70
2023-02-06T20:17:50.814Z,26.20
2023-02-06T20:21:53.194Z,36.00
2023-02-06T20:25:50.772Z,30.70
2023-02-06T20:29:50.564Z,27.60
2023-02-06T20:33:51.037Z,24.10
2023-02-06T20:37:50.458Z,28.70
2023-02-06T20:41:51.157Z,25.00
2023-02-06T20:45:51.574Z,24.20
2023-02-06T20:49:50.541Z,22.60
2023-02-06T20:53:51.575Z,24.10
2023-02-06T20:57:50.596Z,21.00
2023-02-06T21:01:50.860Z,19.40
2023-02-06T21:05:54.914Z,21.30
2023-02-06T21:09:50.792Z,20.80
2023-02-06T21:13:50.679Z,28.20
2023-02-06T21:17:50.605Z,28.70
2023-02-06T21:21:50.749Z,36.00
2023-02-06T21:25:51.985Z,34.90
2023-02-06T21:29:50.750Z,45.40
2023-02-06T21:33:51.602Z,48.00
2023-02-06T21:37:50.677Z,43.40
2023-02-06T21:41:52.644Z,41.50
2023-02-06T21:49:50.796Z,38.00
2023-02-06T21:53:50.746Z,42.10
2023-02-06T21:57:50.849Z,33.80
2023-02-06T22:01:50.791Z,32.30
2023-02-06T22:05:50.984Z,38.40
2023-02-06T22:13:51.845Z,34.90
2023-02-06T22:17:50.854Z,30.60
2023-02-06T22:21:50.854Z,33.20
2023-02-06T22:25:50.766Z,31.90
2023-02-06T22:29:51.113Z,31.00
2023-02-06T22:33:51.557Z,27.90
2023-02-06T22:37:51.156Z,36.00
2023-02-06T22:41:50.936Z,28.80
2023-02-06T22:45:50.967Z,29.90
2023-02-06T22:49:51.511Z,32.40
2023-02-06T22:53:51.176Z,36.20
2023-02-06T23:01:53.911Z,36.20
2023-02-06T23:09:51.202Z,41.90
2023-02-06T23:13:52.520Z,37.00
2023-02-06T23:17:51.773Z,36.50
2023-02-06T23:21:51.330Z,42.30
2023-02-06T23:25:51.520Z,32.60
2023-02-06T23:29:50.865Z,30.50
2023-02-06T23:33:51.957Z,35.60
2023-02-06T23:37:50.958Z,24.60
2023-02-06T23:41:51.306Z,25.00
2023-02-06T23:45:51.194Z,23.50
2023-02-06T23:49:51.296Z,25.40
2023-02-06T23:53:51.414Z,25.40
2023-02-06T23:57:51.142Z,23.60
